Time;durP1;ratioP1;P1;durP2;ratioP2;P2;SDS_P1;SDS_P2;PMS_P1;PMS_P2;Temp;Humidity;BMP_temperature;BMP_pressure;BME280_temperature;BME280_humidity;BME280_pressure;Samples;Min_cycle;Max_cycle;Signal;HPM_P1;HPM_P2
2024/01/28 00:02:00;;;;;;;9.93;4.68;;;;;;;-0.49;100.00;103185.13;4958195;29;20032;-95
2024/01/28 00:04:40;;;;;;;8.45;4.18;;;;;;;-0.50;100.00;103178.25;4957768;29;20398;-96
2024/01/28 00:07:06;;;;;;;9.57;4.50;;;;;;;-0.48;100.00;103181.81;4957759;29;20110;-95
2024/01/28 00:09:42;;;;;;;8.98;4.25;;;;;;;-0.44;100.00;103185.44;4958502;29;20058;-96
2024/01/28 00:12:26;;;;;;;7.93;4.07;;;;;;;-0.35;100.00;103193.75;4958195;28;20436;-96
2024/01/28 00:14:51;;;;;;;9.20;3.90;;;;;;;-0.49;100.00;103168.19;4958075;29;20281;-96
2024/01/28 00:17:34;;;;;;;7.53;3.90;;;;;;;-0.48;100.00;103164.84;4957911;29;20031;-96
2024/01/28 00:20:00;;;;;;;9.13;4.10;;;;;;;-0.52;100.00;103162.00;4957530;29;20486;-96
2024/01/28 00:22:32;;;;;;;7.88;4.05;;;;;;;-0.42;100.00;103176.22;4952012;29;20016;-96
2024/01/28 00:24:59;;;;;;;7.95;4.07;;;;;;;-0.47;100.00;103163.16;4938435;29;20046;-96
2024/01/28 00:27:56;;;;;;;7.25;3.85;;;;;;;-0.39;100.00;103179.88;4937874;29;20031;-96
2024/01/28 00:30:21;;;;;;;7.25;3.85;;;;;;;-0.42;100.00;103174.59;4938528;29;20054;-95
2024/01/28 00:32:46;;;;;;;8.05;4.03;;;;;;;-0.38;100.00;103183.34;4938948;29;20032;-96
2024/01/28 00:35:11;;;;;;;9.02;4.10;;;;;;;-0.39;100.00;103179.00;4938104;29;20052;-96
2024/01/28 00:37:37;;;;;;;7.45;3.50;;;;;;;-0.41;100.00;103180.56;4938472;29;20195;-95
2024/01/28 00:40:03;;;;;;;5.50;3.50;;;;;;;-0.42;100.00;103177.13;4938320;29;20428;-96
2024/01/28 00:42:29;;;;;;;7.90;3.70;;;;;;;-0.45;100.00;103166.72;4938537;29;20028;-96
2024/01/28 00:44:54;;;;;;;7.30;3.70;;;;;;;-0.40;100.00;103175.59;4938727;29;20031;-96
2024/01/28 00:47:19;;;;;;;7.72;3.78;;;;;;;-0.43;100.00;103164.25;4937742;29;20031;-96
2024/01/28 00:49:45;;;;;;;6.55;3.50;;;;;;;-0.45;100.00;103155.63;4937155;29;20047;-96
2024/01/28 00:52:10;;;;;;;7.55;3.63;;;;;;;-0.43;100.00;103156.59;4937924;29;20129;-95
2024/01/28 00:54:37;;;;;;;9.70;3.97;;;;;;;-0.40;100.00;103152.63;4938228;29;20535;-96
2024/01/28 00:57:02;;;;;;;6.22;3.70;;;;;;;-0.49;100.00;103140.13;4936969;29;20066;-96
2024/01/28 00:59:27;;;;;;;6.47;3.45;;;;;;;-0.50;100.00;103134.88;4937617;29;20504;-96
2024/01/28 01:01:53;;;;;;;7.30;3.72;;;;;;;-0.41;100.00;103149.94;4937884;29;20107;-96
2024/01/28 01:04:34;;;;;;;6.10;3.50;;;;;;;-0.57;100.00;103118.31;4943715;29;20100;-94
2024/01/28 01:07:01;;;;;;;5.40;3.45;;;;;;;-0.42;100.00;103145.63;4955491;23;20059;-95
2024/01/28 01:09:26;;;;;;;7.80;3.60;;;;;;;-0.45;100.00;103137.78;4941956;29;20051;-96
2024/01/28 01:11:51;;;;;;;7.07;3.38;;;;;;;-0.48;100.00;103134.25;4942517;29;20043;-95
2024/01/28 01:14:17;;;;;;;6.15;3.53;;;;;;;-0.51;100.00;103131.47;4938962;29;20051;-96
2024/01/28 01:16:42;;;;;;;8.85;4.00;;;;;;;-0.50;100.00;103130.69;4938610;29;20152;-95
2024/01/28 01:19:08;;;;;;;7.45;3.90;;;;;;;-0.47;100.00;103132.56;4938396;29;20055;-96
2024/01/28 01:21:54;;;;;;;6.15;3.50;;;;;;;-0.58;100.00;103113.09;4911617;29;20051;-96
2024/01/28 01:24:19;;;;;;;7.43;3.83;;;;;;;-0.47;100.00;103132.56;4937311;29;20620;-96
2024/01/28 01:27:05;;;;;;;8.10;4.00;;;;;;;-0.47;100.00;103132.56;4939623;29;20047;-95
2024/01/28 01:29:30;;;;;;;7.60;3.70;;;;;;;-0.62;100.00;103107.78;4956647;29;20039;-96
2024/01/28 01:31:55;;;;;;;7.90;3.78;;;;;;;-0.51;100.00;103128.91;4956767;29;20094;-95
2024/01/28 01:34:27;;;;;;;7.95;3.50;;;;;;;-0.53;100.00;103129.59;4956824;29;20023;-95
2024/01/28 01:36:52;;;;;;;5.97;3.30;;;;;;;-0.70;100.00;103100.41;4956384;29;20031;-96
2024/01/28 01:39:33;;;;;;;7.93;3.70;;;;;;;-0.60;100.00;103117.19;4956785;29;20027;-96
2024/01/28 01:41:58;;;;;;;8.15;3.75;;;;;;;-0.72;100.00;103096.88;4956745;29;20456;-96
2024/01/28 01:44:44;;;;;;;6.55;3.58;;;;;;;-0.63;100.00;103115.34;4955625;29;20115;-96
2024/01/28 01:47:24;;;;;;;9.23;4.25;;;;;;;-0.74;100.00;103095.88;4956271;29;20094;-96
2024/01/28 01:50:08;;;;;;;7.63;3.85;;;;;;;-0.60;100.00;103129.97;4957255;29;20024;-96
2024/01/28 01:52:34;;;;;;;8.23;3.65;;;;;;;-0.68;100.00;103119.25;4956256;29;20102;-96
2024/01/28 01:55:17;;;;;;;6.75;3.40;;;;;;;-0.74;100.00;103108.63;4956420;29;20027;-96
2024/01/28 01:57:58;;;;;;;6.93;3.35;;;;;;;-0.74;100.00;103108.63;4955952;29;20041;-96
2024/01/28 02:00:23;;;;;;;5.38;3.10;;;;;;;-0.62;100.00;103133.28;4955664;28;20131;-96
2024/01/28 02:03:12;;;;;;;5.88;3.17;;;;;;;-0.63;100.00;103139.19;4955897;29;20114;-96
2024/01/28 02:05:49;;;;;;;5.85;3.03;;;;;;;-0.68;100.00;103132.88;4955485;28;20065;-96
2024/01/28 02:08:14;;;;;;;5.88;3.00;;;;;;;-0.87;100.00;103104.38;4955936;29;20049;-96
2024/01/28 02:10:55;;;;;;;4.47;3.10;;;;;;;-0.74;100.00;103134.13;4956181;29;20117;-96
2024/01/28 02:13:20;;;;;;;5.47;3.25;;;;;;;-0.82;100.00;103125.94;4956323;29;20026;-96
2024/01/28 02:16:04;;;;;;;5.88;3.10;;;;;;;-0.97;100.00;103103.75;4956757;29;20046;-96
2024/01/28 02:18:30;;;;;;;5.47;3.00;;;;;;;-0.92;100.00;103121.91;4951693;29;20067;-96
2024/01/28 02:21:15;;;;;;;7.03;3.13;;;;;;;-1.05;100.00;103096.34;4937167;29;20036;-96
2024/01/28 02:23:41;;;;;;;5.95;3.30;;;;;;;-1.01;100.00;103111.94;4937049;29;20036;-96
2024/01/28 02:26:18;;;;;;;5.80;3.20;;;;;;;-0.98;100.00;103111.28;4937281;29;20520;-96
2024/01/28 02:28:43;;;;;;;7.72;3.90;;;;;;;-1.05;100.00;103097.22;4937094;29;20043;-96
2024/01/28 02:31:09;;;;;;;6.88;3.60;;;;;;;-1.10;100.00;103073.09;4937289;29;20054;-96
2024/01/28 02:33:54;;;;;;;8.70;3.70;;;;;;;-0.98;100.00;103093.44;4937035;29;20043;-96
2024/01/28 02:36:19;;;;;;;5.13;3.15;;;;;;;-1.13;100.00;103066.13;4937315;29;20034;-96
2024/01/28 02:39:05;;;;;;;7.65;3.55;;;;;;;-0.98;100.00;103089.22;4937350;29;20334;-96
2024/01/28 02:41:30;;;;;;;6.75;3.33;;;;;;;-1.11;100.00;103061.13;4937231;29;20016;-96
2024/01/28 02:44:24;;;;;;;6.90;3.40;;;;;;;-0.96;100.00;103074.03;4937338;29;20352;-96
2024/01/28 02:47:04;;;;;;;5.88;3.38;;;;;;;-1.10;100.00;103048.47;4937499;29;20032;-96
2024/01/28 02:49:30;;;;;;;7.78;3.70;;;;;;;-1.00;100.00;103080.59;4937573;29;20058;-96
2024/01/28 02:51:55;;;;;;;8.18;4.00;;;;;;;-1.14;100.00;103055.81;4937710;29;20416;-96
2024/01/28 02:54:30;;;;;;;7.00;3.70;;;;;;;-1.15;100.00;103054.94;4936541;29;20028;-96
2024/01/28 02:56:56;;;;;;;6.93;3.55;;;;;;;-1.10;100.00;103066.31;4937584;29;20061;-96
2024/01/28 02:59:30;;;;;;;6.47;3.50;;;;;;;-1.21;100.00;103044.31;4937465;29;20174;-96
2024/01/28 03:01:56;;;;;;;7.10;3.35;;;;;;;-1.15;100.00;103051.50;4937098;29;20498;-96
2024/01/28 03:04:21;;;;;;;6.45;3.58;;;;;;;-1.19;100.00;103045.31;4936975;29;20057;-96
2024/01/28 03:06:46;;;;;;;7.18;3.55;;;;;;;-1.14;100.00;103055.81;4936477;29;20048;-96
2024/01/28 03:09:13;;;;;;;7.70;3.40;;;;;;;-1.14;100.00;103064.34;4937226;29;20038;-96
2024/01/28 03:11:38;;;;;;;5.47;3.42;;;;;;;-1.13;100.00;103068.69;4944949;23;20361;-96
2024/01/28 03:14:03;;;;;;;6.07;3.50;;;;;;;-1.16;100.00;103070.09;4939196;29;20023;-96
2024/01/28 03:16:29;;;;;;;5.47;3.20;;;;;;;-1.18;100.00;103057.28;4940902;29;20026;-96
2024/01/28 03:18:54;;;;;;;6.60;3.40;;;;;;;-1.20;100.00;103050.31;4941519;29;20051;-96
2024/01/28 03:21:38;;;;;;;6.65;3.50;;;;;;;-1.27;100.00;103038.81;4940785;29;20055;-96
2024/01/28 03:24:03;;;;;;;6.82;3.22;;;;;;;-1.35;100.00;103032.31;4941053;29;20031;-96
2024/01/28 03:26:51;;;;;;;6.20;3.33;;;;;;;-1.26;100.00;103045.69;4946922;29;20071;-96
2024/01/28 03:29:23;;;;;;;6.63;3.45;;;;;;;-1.36;100.00;103033.09;4940387;29;20032;-96
2024/01/28 03:31:50;;;;;;;9.55;3.47;;;;;;;-1.29;100.00;103040.34;4941284;29;20024;-96
2024/01/28 03:34:30;;;;;;;7.93;3.30;;;;;;;-1.49;100.00;103013.50;4941941;29;20020;-96
2024/01/28 03:36:56;;;;;;;6.32;3.30;;;;;;;-1.38;100.00;103032.97;4942588;29;20551;-96
2024/01/28 03:39:21;;;;;;;6.70;3.55;;;;;;;-1.41;100.00;103032.75;4942800;29;20062;-96
2024/01/28 03:42:02;;;;;;;5.25;3.08;;;;;;;-1.51;100.00;103021.03;4942816;29;20051;-96
2024/01/28 03:44:27;;;;;;;5.63;3.13;;;;;;;-1.51;100.00;103026.13;4944055;29;20032;-96
2024/01/28 03:46:54;;;;;;;6.07;3.40;;;;;;;-1.54;100.00;103018.28;4945416;29;20028;-96
2024/01/28 03:49:35;;;;;;;5.93;3.00;;;;;;;-1.55;100.00;103013.97;4946612;29;20074;-96
2024/01/28 03:52:00;;;;;;;5.10;2.97;;;;;;;-1.56;100.00;103012.19;4949462;29;20028;-96
2024/01/28 03:54:37;;;;;;;5.47;3.15;;;;;;;-1.53;100.00;103025.16;4954021;29;20019;-95
2024/01/28 03:57:03;;;;;;;4.57;3.08;;;;;;;-1.50;100.00;103020.28;4960305;28;20024;-95
2024/01/28 03:59:28;;;;;;;5.60;3.20;;;;;;;-1.48;100.00;103017.81;4956547;29;20083;-96
2024/01/28 04:01:54;;;;;;;6.15;3.20;;;;;;;-1.42;100.00;103026.78;4953675;29;20030;-96
2024/01/28 04:04:31;;;;;;;6.45;3.17;;;;;;;-1.61;100.00;103003.38;4945396;29;20035;-96
2024/01/28 04:06:56;;;;;;;6.72;3.25;;;;;;;-1.58;100.00;103009.53;4939126;29;20552;-96
2024/01/28 04:09:40;;;;;;;6.78;3.65;;;;;;;-1.56;100.00;103012.19;4939365;29;20040;-96
2024/01/28 04:12:06;;;;;;;7.10;3.35;;;;;;;-1.49;100.00;103028.78;4920253;29;20080;-96
2024/01/28 04:15:03;;;;;;;6.95;3.47;;;;;;;-1.46;100.00;103029.88;4924906;29;20048;-96
2024/01/28 04:17:46;;;;;;;6.97;3.40;;;;;;;-1.67;100.00;103003.81;4939750;29;20331;-96
2024/01/28 04:20:12;;;;;;;6.13;2.97;;;;;;;-1.60;100.00;103016.19;4938963;29;20035;-96
2024/01/28 04:22:56;;;;;;;4.97;2.90;;;;;;;-1.52;100.00;103034.56;4939390;29;20028;-96
2024/01/28 04:25:22;;;;;;;4.68;2.70;;;;;;;-1.68;100.00;103007.13;4939341;29;20028;-96
2024/01/28 04:27:47;;;;;;;4.30;2.70;;;;;;;-1.65;100.00;103014.09;4939215;29;20062;-96
2024/01/28 04:30:13;;;;;;;6.18;2.63;;;;;;;-1.65;100.00;103009.91;4940679;29;20035;-95
2024/01/28 04:32:54;;;;;;;3.47;2.50;;;;;;;-1.73;100.00;102995.72;4939896;29;20035;-96
2024/01/28 04:35:20;;;;;;;3.90;2.60;;;;;;;-1.71;100.00;102997.63;4938853;29;20031;-96
2024/01/28 04:37:45;;;;;;;4.43;2.72;;;;;;;-1.77;100.00;102988.69;4939254;29;20108;-96
2024/01/28 04:40:33;;;;;;;3.92;2.40;;;;;;;-1.67;100.00;103008.00;4938857;29;20028;-96
2024/01/28 04:42:58;;;;;;;5.22;2.70;;;;;;;-1.72;100.00;103000.06;4938185;29;20108;-95
2024/01/28 04:45:45;;;;;;;4.53;2.60;;;;;;;-1.70;100.00;103008.69;4938873;29;20158;-96
2024/01/28 04:48:11;;;;;;;5.68;2.65;;;;;;;-1.85;100.00;102972.88;4938841;29;20365;-96
2024/01/28 04:50:36;;;;;;;6.20;3.28;;;;;;;-1.83;100.00;102975.50;4938420;29;20031;-96
2024/01/28 04:53:21;;;;;;;5.65;3.00;;;;;;;-1.71;100.00;102989.09;4938141;29;20420;-96
2024/01/28 04:55:46;;;;;;;6.25;3.15;;;;;;;-1.83;100.00;102963.69;4939004;29;20032;-96
2024/01/28 04:58:11;;;;;;;4.60;2.95;;;;;;;-1.74;100.00;102973.59;4938255;29;20094;-96
2024/01/28 05:04:00;;;;;;;6.20;3.20;;;;;;;-1.76;100.00;102960.78;4938052;29;20620;-96
2024/01/28 05:06:48;;;;;;;8.23;3.55;;;;;;;-1.64;100.00;102982.78;4933296;29;20192;-95
2024/01/28 05:09:16;;;;;;;7.85;3.42;;;;;;;-1.75;100.00;102970.19;4919291;29;20039;-96
2024/01/28 05:14:32;;;;;;;5.20;3.05;;;;;;;-1.76;100.00;102972.63;4957053;29;20042;-96
2024/01/28 05:16:59;;;;;;;7.72;3.13;;;;;;;-1.83;100.00;102962.78;4957195;29;20043;-95
2024/01/28 05:20:14;;;;;;;5.82;3.08;;;;;;;-1.69;100.00;102990.09;4956911;28;20117;-96
2024/01/28 05:22:52;;;;;;;6.57;3.30;;;;;;;-1.80;100.00;102961.31;4954474;29;20039;-96
2024/01/28 05:25:39;;;;;;;8.00;3.65;;;;;;;-1.68;100.00;102986.78;4956679;29;20535;-96
2024/01/28 05:28:14;;;;;;;12.20;4.43;;;;;;;-1.82;100.00;102960.34;4956350;29;20115;-96
2024/01/28 05:30:49;;;;;;;10.45;4.15;;;;;;;-1.74;100.00;102963.41;4956484;29;20468;-96
2024/01/28 05:33:33;;;;;;;7.97;4.00;;;;;;;-1.81;100.00;102944.31;4956606;29;20027;-95
2024/01/28 05:35:59;;;;;;;6.43;3.38;;;;;;;-1.72;100.00;102964.41;4958071;28;20024;-96
2024/01/28 05:38:42;;;;;;;6.37;3.40;;;;;;;-1.84;100.00;102948.28;4956196;28;20031;-96
2024/01/28 05:41:22;;;;;;;5.85;3.50;;;;;;;-1.92;100.00;102932.50;4956700;29;20038;-96
2024/01/28 05:43:47;;;;;;;7.07;3.50;;;;;;;-1.77;100.00;102950.50;4956125;29;20027;-96
2024/01/28 05:46:30;;;;;;;6.20;3.10;;;;;;;-1.92;100.00;102928.28;4956234;29;20152;-96
2024/01/28 05:49:04;;;;;;;6.95;3.22;;;;;;;-1.85;100.00;102939.78;4956491;29;20051;-96
2024/01/28 05:51:50;;;;;;;8.20;3.40;;;;;;;-1.84;100.00;102939.00;4956119;29;20023;-95
2024/01/28 05:54:16;;;;;;;7.38;3.22;;;;;;;-1.89;100.00;102931.03;4955947;29;20032;-96
2024/01/28 05:57:01;;;;;;;9.15;3.53;;;;;;;-1.79;100.00;102940.19;4955860;29;20024;-95
2024/01/28 05:59:42;;;;;;;8.25;3.20;;;;;;;-1.96;100.00;102911.00;4956090;29;20110;-96
2024/01/28 06:02:07;;;;;;;4.90;2.92;;;;;;;-1.92;100.00;102914.69;4955683;29;20073;-96
2024/01/28 06:04:38;;;;;;;8.60;3.60;;;;;;;-2.02;100.00;102906.38;4955977;28;20047;-96
2024/01/28 06:07:19;;;;;;;7.82;3.78;;;;;;;-1.85;100.00;102919.41;4945412;29;20043;-96
2024/01/28 06:09:53;;;;;;;7.63;3.30;;;;;;;-1.90;100.00;102908.91;4937173;29;20032;-96
2024/01/28 06:12:25;;;;;;;7.55;3.50;;;;;;;-2.02;100.00;102883.47;4936347;29;20044;-96
2024/01/28 06:14:50;;;;;;;6.53;3.40;;;;;;;-2.03;100.00;102886.78;4937246;29;20027;-96
2024/01/28 06:17:17;;;;;;;7.25;3.08;;;;;;;-2.02;100.00;102890.25;4936821;29;20042;-96
2024/01/28 06:19:46;;;;;;;6.80;3.40;;;;;;;-2.06;100.00;102881.53;4936668;29;20110;-95
2024/01/28 06:22:26;;;;;;;7.95;3.60;;;;;;;-1.95;100.00;102909.38;4937036;29;20508;-95
2024/01/28 06:25:10;;;;;;;6.80;3.33;;;;;;;-2.00;100.00;102900.50;4936679;29;20103;-95
2024/01/28 06:27:44;;;;;;;8.20;3.92;;;;;;;-1.97;100.00;102895.66;4936778;29;20028;-95
2024/01/28 06:30:19;;;;;;;8.25;3.80;;;;;;;-2.06;100.00;102878.06;4937136;29;20106;-96
2024/01/28 06:32:56;;;;;;;7.40;3.25;;;;;;;-1.97;100.00;102891.44;4936778;29;20106;-96
2024/01/28 06:35:40;;;;;;;6.13;3.00;;;;;;;-1.88;100.00;102911.56;4936462;29;20047;-95
2024/01/28 06:38:07;;;;;;;8.07;3.70;;;;;;;-1.98;100.00;102876.97;4938624;29;20035;-95
2024/01/28 06:40:32;;;;;;;10.90;4.20;;;;;;;-1.87;100.00;102898.03;4950211;23;20044;-95
2024/01/28 06:43:00;;;;;;;11.82;3.95;;;;;;;-1.91;100.00;102888.41;4936737;29;20043;-96
2024/01/28 06:45:25;;;;;;;9.35;3.95;;;;;;;-1.91;100.00;102885.88;4936761;29;20045;-96
2024/01/28 06:47:50;;;;;;;6.55;3.30;;;;;;;-1.86;100.00;102894.72;4939433;29;20130;-96
2024/01/28 06:50:16;;;;;;;8.00;3.60;;;;;;;-1.86;100.00;102898.13;4940523;29;20457;-94
2024/01/28 06:52:48;;;;;;;10.85;4.00;;;;;;;-1.84;100.00;102900.81;4941124;29;20068;-95
2024/01/28 06:58:22;;;;;;;8.77;3.70;;;;;;;-1.91;100.00;102885.88;4941012;29;20066;-95
2024/01/28 07:01:03;;;;;;;7.10;3.30;;;;;;;-1.96;100.00;102871.97;4940874;29;20031;-95
2024/01/28 07:03:29;;;;;;;7.88;3.50;;;;;;;-1.82;100.00;102890.72;4972981;23;20047;-95
2024/01/28 07:05:54;;;;;;;8.77;4.07;;;;;;;-1.82;100.00;102896.72;4959587;29;20059;-95
2024/01/28 07:08:19;;;;;;;9.02;4.20;;;;;;;-1.82;100.00;102891.63;4959518;29;20085;-93
2024/01/28 07:10:45;;;;;;;8.50;3.70;;;;;;;-1.86;100.00;102882.00;4958907;29;20067;-89
2024/01/28 07:13:10;;;;;;;8.43;3.72;;;;;;;-1.95;100.00;102872.06;4958822;29;20031;-90
2024/01/28 07:15:36;;;;;;;9.25;3.80;;;;;;;-1.89;100.00;102889.41;4958563;29;20034;-82
2024/01/28 07:18:17;;;;;;;9.43;3.63;;;;;;;-1.92;100.00;102876.50;4959556;29;20113;-92
2024/01/28 07:20:57;;;;;;;8.32;3.90;;;;;;;-1.95;100.00;102872.06;4959442;29;20024;-92
2024/01/28 07:23:23;;;;;;;6.07;3.40;;;;;;;-1.94;100.00;102881.47;4959243;29;20050;-93
2024/01/28 07:26:10;;;;;;;9.27;3.83;;;;;;;-1.80;100.00;102896.81;4959096;29;20030;-92
2024/01/28 07:28:54;;;;;;;6.18;3.35;;;;;;;-1.83;100.00;102888.97;4966725;28;20093;-93
2024/01/28 07:31:19;;;;;;;4.75;3.00;;;;;;;-1.96;100.00;102862.66;4978310;28;20093;-93
2024/01/28 07:33:57;;;;;;;6.03;3.00;;;;;;;-1.96;100.00;102861.78;4978516;28;20512;-93
2024/01/28 07:36:40;;;;;;;5.75;2.90;;;;;;;-1.96;100.00;102860.13;4978281;28;20023;-93
2024/01/28 07:39:06;;;;;;;5.55;2.90;;;;;;;-1.87;100.00;102867.50;4971620;28;20023;-93
2024/01/28 07:41:41;;;;;;;4.32;2.72;;;;;;;-1.90;100.00;102875.81;4969423;28;20022;-89
2024/01/28 07:44:15;;;;;;;5.55;2.60;;;;;;;-1.96;100.00;102857.56;4977534;28;20062;-90
2024/01/28 07:46:41;;;;;;;6.80;3.00;;;;;;;-1.84;100.00;102880.44;4976117;28;20494;-87
2024/01/28 07:49:21;;;;;;;5.35;2.90;;;;;;;-1.91;100.00;102868.06;4976898;28;20050;-86
2024/01/28 07:51:47;;;;;;;5.65;3.00;;;;;;;-1.88;100.00;102870.81;4975684;28;20023;-85
2024/01/28 07:54:12;;;;;;;4.43;2.58;;;;;;;-1.86;100.00;102877.78;4977237;28;20379;-92
2024/01/28 07:56:59;;;;;;;6.35;3.15;;;;;;;-1.84;100.00;102880.44;4979485;28;20018;-91
2024/01/28 07:59:43;;;;;;;5.57;3.10;;;;;;;-1.89;100.00;102866.50;4979545;28;20103;-95
2024/01/28 08:02:33;;;;;;;6.25;2.85;;;;;;;-1.81;100.00;102879.78;4979603;28;20097;-93
2024/01/28 08:04:59;;;;;;;4.07;2.50;;;;;;;-1.98;100.00;102848.06;4980838;28;20383;-92
2024/01/28 08:07:37;;;;;;;6.15;2.85;;;;;;;-1.88;100.00;102861.53;4974533;28;20023;-92
2024/01/28 08:10:18;;;;;;;5.35;3.17;;;;;;;-1.86;100.00;102864.19;4963773;29;20040;-91
2024/01/28 08:12:55;;;;;;;5.28;3.20;;;;;;;-1.91;100.00;102848.59;4967191;29;20035;-91
2024/01/28 08:15:39;;;;;;;7.63;3.65;;;;;;;-1.79;100.00;102860.41;4971674;29;20067;-92
2024/01/28 08:18:23;;;;;;;8.18;3.85;;;;;;;-1.75;100.00;102857.28;4969855;29;20035;-92
2024/01/28 08:21:04;;;;;;;9.95;4.03;;;;;;;-1.85;100.00;102835.41;4968021;29;20020;-93
2024/01/28 08:23:38;;;;;;;7.18;3.50;;;;;;;-1.60;100.00;102865.06;4958539;29;20023;-93
2024/01/28 08:26:04;;;;;;;9.15;4.00;;;;;;;-1.57;100.00;102866.16;4967395;23;20027;-91
2024/01/28 08:28:29;;;;;;;7.10;3.60;;;;;;;-1.53;100.00;102854.50;4958097;29;20090;-93
2024/01/28 08:30:54;;;;;;;7.65;3.80;;;;;;;-1.45;100.00;102844.84;4957918;29;20486;-94
2024/01/28 08:33:31;;;;;;;6.80;3.40;;;;;;;-1.45;100.00;102849.94;4957401;29;20035;-95
2024/01/28 08:36:03;;;;;;;10.07;4.40;;;;;;;-1.34;100.00;102848.06;5047970;23;20057;-95
2024/01/28 08:38:34;;;;;;;8.77;4.20;;;;;;;-1.30;100.00;102847.50;4957886;29;20027;-96
2024/01/28 08:41:07;;;;;;;8.18;4.15;;;;;;;-1.36;100.00;102825.06;4957599;29;20045;-96
2024/01/28 08:43:50;;;;;;;8.60;4.10;;;;;;;-1.29;100.00;102826.34;4958047;29;20023;-96
2024/01/28 08:46:16;;;;;;;7.78;3.90;;;;;;;-1.32;100.00;102816.84;4958357;29;20023;-95
2024/01/28 08:52:17;;;;;;;8.05;3.97;;;;;;;-1.14;100.00;102816.28;4957496;29;20049;-96
2024/01/28 08:55:01;;;;;;;8.00;4.10;;;;;;;-0.99;100.00;102826.56;4957350;29;20514;-96
2024/01/28 09:00:41;;;;;;;8.00;4.15;;;;;;;-0.87;100.00;102806.09;4897871;29;20078;-94
2024/01/28 09:09:13;;;;;;;13.57;5.03;;;;;;;-0.48;100.00;102820.47;4918812;29;20047;-96
2024/01/28 09:12:04;;;;;;;9.48;5.00;;;;;;;-0.30;100.00;102832.56;4918208;29;20020;-95
2024/01/28 09:14:52;;;;;;;10.52;4.72;;;;;;;-0.21;100.00;102832.25;4937418;29;20012;-94
2024/01/28 09:17:17;;;;;;;11.40;4.90;;;;;;;-0.29;100.00;102806.28;4936975;29;20027;-95
2024/01/28 09:23:27;;;;;;;11.93;4.55;;;;;;;0.13;100.00;102822.41;4955942;29;20054;-91
2024/01/28 09:25:52;;;;;;;9.18;4.40;;;;;;;0.21;100.00;102815.19;4956913;29;20083;-95
2024/01/28 09:28:18;;;;;;;10.65;5.15;;;;;;;0.20;100.00;102798.13;4958386;28;20392;-94
2024/01/28 09:31:08;;;;;;;11.77;5.07;;;;;;;0.48;100.00;102817.63;4956360;29;20027;-93
2024/01/28 09:45:04;;;;;;;9.13;4.95;;;;;;;1.05;100.00;102808.06;5530138;22;15946307;-93
2024/01/28 09:51:08;;;;;;;9.95;4.22;;;;;;;1.38;100.00;102814.94;6134482;23;20092;-93
2024/01/28 10:07:48;;;;;;;;;;;;;;;;;;;;;
2024/01/28 10:49:31;;;;;;;6.70;4.10;;;;;;;3.84;94.58;102765.34;6245388;23;20019;-81
2024/01/28 10:51:57;;;;;;;5.60;3.53;;;;;;;3.95;96.57;102755.53;6245822;23;20016;-80
2024/01/28 10:54:23;;;;;;;6.93;3.90;;;;;;;4.12;95.97;102765.63;6243665;23;20482;-80
2024/01/28 10:56:50;;;;;;;8.23;4.00;;;;;;;4.16;92.87;102755.59;6245935;23;20019;-80
2024/01/28 10:59:16;;;;;;;9.35;4.93;;;;;;;4.27;90.42;102757.72;6245687;23;20431;-80
2024/01/28 11:01:43;;;;;;;7.53;4.55;;;;;;;4.34;91.49;102744.28;6245040;23;20178;-80
2024/01/28 11:04:08;;;;;;;11.68;5.05;;;;;;;4.48;93.88;102748.31;6245924;23;20008;-80
2024/01/28 11:06:35;;;;;;;8.03;4.20;;;;;;;4.53;93.75;102734.75;6246178;23;20035;-80
2024/01/28 11:09:00;;;;;;;11.60;4.93;;;;;;;4.68;93.24;102742.19;6245180;23;20079;-80
2024/01/28 11:11:26;;;;;;;10.13;4.63;;;;;;;4.72;91.47;102737.25;6245446;23;20008;-80
2024/01/28 11:13:51;;;;;;;11.30;5.00;;;;;;;4.77;88.91;102725.44;6246269;23;20004;-80
2024/01/28 11:16:19;;;;;;;9.05;4.95;;;;;;;4.88;90.77;102728.44;6244827;23;20087;-80
2024/01/28 11:19:05;;;;;;;9.18;4.40;;;;;;;4.97;90.08;102721.88;6246268;23;20012;-80
2024/01/28 11:21:33;;;;;;;8.70;4.38;;;;;;;5.08;92.00;102720.59;6246342;23;20091;-92
2024/01/28 11:23:58;;;;;;;8.73;4.72;;;;;;;5.17;85.46;102717.50;6247175;23;20328;-92
2024/01/28 11:26:55;;;;;;;8.97;4.13;;;;;;;5.24;88.79;102716.91;6246613;23;20038;-88
2024/01/28 11:29:39;;;;;;;9.65;4.50;;;;;;;5.33;87.32;102712.09;6124207;23;20010;-93
2024/01/28 11:32:33;;;;;;;7.82;4.70;;;;;;;5.47;88.51;102707.41;6124117;23;20014;-91
2024/01/28 11:35:26;;;;;;;8.00;4.35;;;;;;;5.40;88.40;102683.16;6124870;23;20021;-91
2024/01/28 11:40:40;;;;;;;9.35;4.90;;;;;;;5.60;85.16;102683.00;6125177;23;20526;-92
2024/01/28 11:43:28;;;;;;;9.67;4.77;;;;;;;5.71;84.57;102684.25;6124578;23;20014;-91
2024/01/28 11:46:13;;;;;;;8.38;4.60;;;;;;;5.79;85.03;102687.09;6135390;23;20013;-92
2024/01/28 11:48:53;;;;;;;9.50;4.40;;;;;;;5.87;86.39;102677.03;6247872;23;20070;-91
2024/01/28 11:51:36;;;;;;;7.40;4.07;;;;;;;5.86;85.54;102668.44;6246365;23;20012;-91
2024/01/28 11:54:16;;;;;;;9.85;4.70;;;;;;;5.97;84.26;102657.59;6247159;23;20000;-91
2024/01/28 11:57:00;;;;;;;6.25;4.10;;;;;;;6.07;81.57;102663.97;6246047;23;20079;-90
2024/01/28 11:59:44;;;;;;;8.85;4.10;;;;;;;6.06;77.73;102649.34;6247823;23;20000;-92
2024/01/28 12:02:28;;;;;;;9.00;4.40;;;;;;;6.15;78.06;102655.66;6247311;23;20015;-92
2024/01/28 12:05:10;;;;;;;9.25;4.53;;;;;;;6.21;80.73;102642.06;6246949;23;20011;-92
2024/01/28 12:11:08;;;;;;;7.15;3.50;;;;;;;6.40;81.61;102650.41;6247512;23;20472;-92
2024/01/28 12:13:46;;;;;;;6.23;3.50;;;;;;;6.52;81.76;102655.06;6248097;23;20004;-91
2024/01/28 12:16:29;;;;;;;10.30;3.78;;;;;;;6.61;82.91;102656.22;6248536;23;20420;-91
2024/01/28 12:19:13;;;;;;;5.80;3.40;;;;;;;6.55;82.09;102630.22;6249042;23;20027;-91
2024/01/28 12:21:46;;;;;;;6.03;3.33;;;;;;;6.69;79.22;102645.25;6249664;23;20008;-92
2024/01/28 12:24:22;;;;;;;7.13;3.90;;;;;;;6.78;78.26;102646.41;6250662;23;20066;-92
2024/01/28 12:26:54;;;;;;;5.97;3.60;;;;;;;6.78;81.70;102630.91;6252485;23;20058;-92
2024/01/28 12:29:26;;;;;;;5.20;3.30;;;;;;;6.92;75.83;102640.78;6254755;23;20000;-93
2024/01/28 12:32:04;;;;;;;7.95;3.97;;;;;;;6.89;79.37;102626.06;6256863;23;20010;-93
2024/01/28 12:34:56;;;;;;;6.50;3.25;;;;;;;7.02;78.59;102644.47;6263369;23;20008;-93
2024/01/28 12:37:38;;;;;;;7.90;3.83;;;;;;;7.01;75.85;102622.06;6267363;23;20016;-92
2024/01/28 12:40:22;;;;;;;8.05;3.83;;;;;;;7.18;79.43;102623.44;6260044;23;20000;-92
2024/01/28 12:42:59;;;;;;;6.63;3.63;;;;;;;7.04;75.42;102598.94;6256871;23;20008;-90
2024/01/28 12:51:43;;;;;;;7.93;3.90;;;;;;;7.35;73.00;102616.13;6215973;23;20027;-87
2024/01/28 12:57:44;;;;;;;8.30;3.80;;;;;;;7.43;74.98;102587.91;6223045;22;20054;-92
2024/01/28 13:00:14;;;;;;;7.27;3.60;;;;;;;7.46;72.70;102603.50;6246794;23;20012;-92
2024/01/28 13:02:48;;;;;;;5.60;3.45;;;;;;;7.50;75.01;102597.56;6247248;23;20008;-92
2024/01/28 13:05:20;;;;;;;6.63;3.42;;;;;;;7.52;76.93;102585.59;6246615;23;20016;-94
2024/01/28 13:08:10;;;;;;;6.75;3.30;;;;;;;7.69;75.30;102605.78;6246471;23;20061;-92
2024/01/28 13:10:41;;;;;;;5.63;2.97;;;;;;;7.72;76.03;102595.53;6246222;23;20006;-92
2024/01/28 13:13:28;;;;;;;6.97;3.30;;;;;;;7.80;75.95;102606.94;6245390;23;20015;-93
2024/01/28 13:16:09;;;;;;;6.70;3.40;;;;;;;7.82;71.39;102587.16;6245825;22;20027;-92
2024/01/28 13:18:52;;;;;;;6.38;3.30;;;;;;;7.82;75.33;102566.50;6246561;23;20031;-93
2024/01/28 13:21:29;;;;;;;5.88;3.30;;;;;;;7.96;74.08;102577.16;6245916;23;20015;-93
2024/01/28 13:24:10;;;;;;;5.10;3.05;;;;;;;7.93;75.13;102547.75;6245778;23;20019;-93
2024/01/28 13:26:57;;;;;;;4.78;3.00;;;;;;;8.13;74.70;102580.13;6245960;23;20040;-93
2024/01/28 13:29:48;;;;;;;7.57;3.40;;;;;;;8.20;75.04;102570.78;6245407;23;20032;-93
2024/01/28 13:32:36;;;;;;;6.70;3.13;;;;;;;8.14;75.13;102556.00;6245237;23;20008;-93
2024/01/28 13:35:23;;;;;;;5.22;3.13;;;;;;;8.29;71.68;102565.81;6246251;23;20035;-93
2024/01/28 13:37:48;;;;;;;5.10;2.92;;;;;;;8.31;73.72;102553.78;6246230;23;20004;-93
2024/01/28 13:40:35;;;;;;;5.50;2.93;;;;;;;8.43;74.49;102548.03;6245889;23;20439;-94
2024/01/28 13:45:40;;;;;;;8.57;3.65;;;;;;;8.56;70.79;102517.22;6244703;22;20028;-93